Time;durP1;ratioP1;P1;durP2;ratioP2;P2;SDS_P1;SDS_P2;PMS_P1;PMS_P2;Temp;Humidity;BMP_temperature;BMP_pressure;BME280_temperature;BME280_humidity;BME280_pressure;Samples;Min_cycle;Max_cycle;Signal;HPM_P1;HPM_P2
2022/08/06 00:01:15;;;;;;;4.80;1.33;;;;;;;;;;2324068;58;21116;-77
2022/08/06 00:03:42;;;;;;;2.50;1.45;;;;;;;;;;2323804;58;21049;-78
2022/08/06 00:06:09;;;;;;;4.70;1.58;;;;;;;;;;2323928;58;21056;-77
2022/08/06 00:08:36;;;;;;;2.37;1.20;;;;;;;;;;2566995;54;21180;-78
2022/08/06 00:11:03;;;;;;;1.62;1.10;;;;;;;;;;2323049;58;21045;-78
2022/08/06 00:13:30;;;;;;;1.58;1.00;;;;;;;;;;2324562;58;21113;-78
2022/08/06 00:15:57;;;;;;;5.10;1.37;;;;;;;;;;2565496;54;21048;-75
2022/08/06 00:18:24;;;;;;;3.62;1.30;;;;;;;;;;2566201;54;21056;-77
2022/08/06 00:20:51;;;;;;;5.28;1.83;;;;;;;;;;2324245;58;21049;-78
2022/08/06 00:23:18;;;;;;;2.20;1.45;;;;;;;;;;2324256;58;21100;-77
2022/08/06 00:25:46;;;;;;;2.35;1.27;;;;;;;;;;2323628;58;21045;-78
2022/08/06 00:28:13;;;;;;;3.12;1.40;;;;;;;;;;2565359;54;21107;-75
2022/08/06 00:30:41;;;;;;;1.40;1.27;;;;;;;;;;2323959;58;21131;-76
2022/08/06 00:33:08;;;;;;;3.78;1.45;;;;;;;;;;2324166;58;21115;-76
2022/08/06 00:35:35;;;;;;;4.15;1.10;;;;;;;;;;2323240;58;21104;-78
2022/08/06 00:38:03;;;;;;;1.83;1.23;;;;;;;;;;2565899;54;21330;-75
2022/08/06 00:40:30;;;;;;;5.87;1.50;;;;;;;;;;2323990;58;21637;-78
2022/08/06 00:42:58;;;;;;;3.45;2.08;;;;;;;;;;2323726;58;21040;-78
2022/08/06 00:45:25;;;;;;;2.97;1.37;;;;;;;;;;2565610;54;21645;-75
2022/08/06 00:47:52;;;;;;;3.50;1.67;;;;;;;;;;2323789;58;21107;-77
2022/08/06 00:50:19;;;;;;;6.40;1.55;;;;;;;;;;2565862;54;21083;-78
2022/08/06 00:52:46;;;;;;;2.47;1.30;;;;;;;;;;2565198;54;21052;-77
2022/08/06 00:55:13;;;;;;;2.17;1.12;;;;;;;;;;2324115;58;21150;-78
2022/08/06 00:57:40;;;;;;;2.40;1.33;;;;;;;;;;2565382;54;21531;-77
2022/08/06 01:00:09;;;;;;;3.28;1.30;;;;;;;;;;2565819;54;21020;-79
2022/08/06 01:02:36;;;;;;;3.97;1.98;;;;;;;;;;2564941;54;21037;-75
2022/08/06 01:05:03;;;;;;;1.45;1.17;;;;;;;;;;2323634;58;21035;-75
2022/08/06 01:07:31;;;;;;;2.78;1.17;;;;;;;;;;2564414;54;21044;-78
2022/08/06 01:09:58;;;;;;;3.22;1.10;;;;;;;;;;2322530;58;21048;-76
2022/08/06 01:12:25;;;;;;;2.70;1.23;;;;;;;;;;2323017;58;21115;-79
2022/08/06 01:14:52;;;;;;;6.28;1.42;;;;;;;;;;2322940;58;21634;-75
2022/08/06 01:17:23;;;;;;;2.53;1.20;;;;;;;;;;2322684;58;21052;-75
2022/08/06 01:19:54;;;;;;;3.37;1.50;;;;;;;;;;2323192;58;21053;-76
2022/08/06 01:22:40;;;;;;;4.00;1.40;;;;;;;;;;2322807;58;21044;-75
2022/08/06 01:25:27;;;;;;;2.37;1.23;;;;;;;;;;2322502;58;21060;-78
2022/08/06 01:27:57;;;;;;;5.28;1.60;;;;;;;;;;2302527;58;21127;-78
2022/08/06 01:30:27;;;;;;;4.50;1.55;;;;;;;;;;2323167;58;22237;-75
2022/08/06 01:32:58;;;;;;;3.08;1.23;;;;;;;;;;2322546;58;21329;-76
2022/08/06 01:35:28;;;;;;;1.15;1.05;;;;;;;;;;2322633;58;21036;-75
2022/08/06 01:37:58;;;;;;;3.78;1.17;;;;;;;;;;2322900;58;21136;-76
2022/08/06 01:40:27;;;;;;;1.37;1.15;;;;;;;;;;2322630;58;21068;-75
2022/08/06 01:42:55;;;;;;;2.78;1.45;;;;;;;;;;2323067;58;21138;-75
2022/08/06 01:45:24;;;;;;;1.12;0.98;;;;;;;;;;2321892;58;21092;-75
2022/08/06 01:47:53;;;;;;;3.47;1.40;;;;;;;;;;2323240;58;21056;-78
2022/08/06 01:50:23;;;;;;;3.30;1.20;;;;;;;;;;2565283;54;21100;-76
2022/08/06 01:52:52;;;;;;;2.35;1.20;;;;;;;;;;2321470;58;21052;-75
2022/08/06 01:55:20;;;;;;;2.03;1.05;;;;;;;;;;2323081;58;21127;-75
2022/08/06 01:57:52;;;;;;;3.70;1.50;;;;;;;;;;2323061;58;21084;-75
2022/08/06 02:00:19;;;;;;;4.28;1.35;;;;;;;;;;2564640;54;21036;-75
2022/08/06 02:02:47;;;;;;;4.68;1.85;;;;;;;;;;2323505;58;21040;-78
2022/08/06 02:05:16;;;;;;;5.72;2.00;;;;;;;;;;2322172;58;21155;-76
2022/08/06 02:07:46;;;;;;;4.53;1.45;;;;;;;;;;2321826;58;21107;-76
2022/08/06 02:10:15;;;;;;;3.67;1.40;;;;;;;;;;2322955;58;21048;-75
2022/08/06 02:12:43;;;;;;;3.15;1.62;;;;;;;;;;2322886;58;21116;-76
2022/08/06 02:15:13;;;;;;;3.70;1.37;;;;;;;;;;2563900;54;21051;-75
2022/08/06 02:17:42;;;;;;;3.40;1.40;;;;;;;;;;2322496;58;21116;-75
2022/08/06 02:20:11;;;;;;;3.03;1.12;;;;;;;;;;2322799;58;21044;-78
2022/08/06 02:22:39;;;;;;;2.62;1.35;;;;;;;;;;2323456;58;21068;-76
2022/08/06 02:25:10;;;;;;;2.42;1.17;;;;;;;;;;2322910;58;21052;-75
2022/08/06 02:27:38;;;;;;;2.55;1.40;;;;;;;;;;2322645;58;21116;-75
2022/08/06 02:30:06;;;;;;;5.00;1.65;;;;;;;;;;2564357;54;21037;-76
2022/08/06 02:32:34;;;;;;;2.80;1.60;;;;;;;;;;2564263;54;21542;-76
2022/08/06 02:35:01;;;;;;;2.35;1.42;;;;;;;;;;2323134;58;21550;-75
2022/08/06 02:37:31;;;;;;;2.37;1.52;;;;;;;;;;2322932;58;21160;-75
2022/08/06 02:40:00;;;;;;;1.60;1.30;;;;;;;;;;2322075;58;21610;-79
2022/08/06 02:42:28;;;;;;;2.17;1.35;;;;;;;;;;2323165;58;21116;-76
2022/08/06 02:44:59;;;;;;;2.58;1.70;;;;;;;;;;2322213;58;21068;-76
2022/08/06 02:47:30;;;;;;;2.17;1.58;;;;;;;;;;2322449;58;21626;-76
2022/08/06 02:49:59;;;;;;;5.03;1.42;;;;;;;;;;2322983;58;21111;-75
2022/08/06 02:52:30;;;;;;;3.45;1.92;;;;;;;;;;2322517;58;21179;-76
2022/08/06 02:54:59;;;;;;;3.17;1.90;;;;;;;;;;2322102;58;21051;-78
2022/08/06 02:57:29;;;;;;;2.40;1.50;;;;;;;;;;2563511;54;21056;-75
2022/08/06 03:00:00;;;;;;;8.23;1.85;;;;;;;;;;2564677;54;21584;-75
2022/08/06 03:02:29;;;;;;;2.20;1.58;;;;;;;;;;2323013;58;21103;-75
2022/08/06 03:04:56;;;;;;;2.35;1.62;;;;;;;;;;2564334;54;21168;-75
2022/08/06 03:07:26;;;;;;;4.03;1.73;;;;;;;;;;2322781;58;21044;-77
2022/08/06 03:09:54;;;;;;;3.50;1.60;;;;;;;;;;2323168;58;21048;-76
2022/08/06 03:12:21;;;;;;;2.45;1.37;;;;;;;;;;2322477;58;21053;-76
2022/08/06 03:14:49;;;;;;;3.58;2.00;;;;;;;;;;2323329;58;21044;-75
2022/08/06 03:17:17;;;;;;;3.47;1.50;;;;;;;;;;2322592;58;21174;-75
2022/08/06 03:19:45;;;;;;;3.08;1.67;;;;;;;;;;2323188;58;21029;-75
2022/08/06 03:22:13;;;;;;;3.03;1.48;;;;;;;;;;2322774;58;21052;-75
2022/08/06 03:24:42;;;;;;;1.73;1.20;;;;;;;;;;2321922;58;21073;-75
2022/08/06 03:27:11;;;;;;;3.03;1.50;;;;;;;;;;2322278;58;21060;-75
2022/08/06 03:29:39;;;;;;;3.70;1.58;;;;;;;;;;2323578;58;21047;-76
2022/08/06 03:32:08;;;;;;;3.08;1.12;;;;;;;;;;2322822;58;21056;-75
2022/08/06 03:34:35;;;;;;;2.72;1.50;;;;;;;;;;2323054;58;21119;-77
2022/08/06 03:37:04;;;;;;;2.12;1.67;;;;;;;;;;2322209;58;21136;-78
2022/08/06 03:39:32;;;;;;;3.78;1.60;;;;;;;;;;2322750;58;21546;-76
2022/08/06 03:41:59;;;;;;;3.47;1.73;;;;;;;;;;2564441;54;21102;-78
2022/08/06 03:44:26;;;;;;;1.60;1.25;;;;;;;;;;2323116;58;21123;-79
2022/08/06 03:46:55;;;;;;;4.03;1.60;;;;;;;;;;2564376;54;21032;-76
2022/08/06 03:49:24;;;;;;;3.85;1.50;;;;;;;;;;2322325;58;21064;-75
2022/08/06 03:51:54;;;;;;;2.22;1.52;;;;;;;;;;2322195;58;21041;-76
2022/08/06 03:54:27;;;;;;;1.45;1.20;;;;;;;;;;2323513;58;21052;-78
2022/08/06 03:56:55;;;;;;;3.08;1.70;;;;;;;;;;2322398;58;21052;-78
2022/08/06 03:59:22;;;;;;;4.95;1.85;;;;;;;;;;2323130;58;21048;-77
2022/08/06 04:01:50;;;;;;;4.87;1.60;;;;;;;;;;2322701;58;21040;-75
2022/08/06 04:04:17;;;;;;;5.15;1.75;;;;;;;;;;2322978;58;21135;-76
2022/08/06 04:06:45;;;;;;;2.17;1.52;;;;;;;;;;2321949;58;21157;-76
2022/08/06 04:09:12;;;;;;;1.80;1.42;;;;;;;;;;2323010;58;21092;-75
2022/08/06 04:11:40;;;;;;;5.10;1.70;;;;;;;;;;2322800;58;21124;-76
2022/08/06 04:14:08;;;;;;;2.75;1.23;;;;;;;;;;2323014;58;21048;-77
2022/08/06 04:16:35;;;;;;;3.12;1.80;;;;;;;;;;2322319;58;21140;-78
2022/08/06 04:19:02;;;;;;;1.67;1.58;;;;;;;;;;2322677;58;21112;-75
2022/08/06 04:21:29;;;;;;;3.05;1.80;;;;;;;;;;2322894;58;21056;-77
2022/08/06 04:23:56;;;;;;;4.22;1.80;;;;;;;;;;2323509;58;21598;-75
2022/08/06 04:26:24;;;;;;;4.00;1.67;;;;;;;;;;2321703;58;21071;-78
2022/08/06 04:28:52;;;;;;;5.72;1.60;;;;;;;;;;2322901;58;21106;-75
2022/08/06 04:31:20;;;;;;;9.02;1.87;;;;;;;;;;2322217;58;21077;-75
2022/08/06 04:33:47;;;;;;;3.05;1.60;;;;;;;;;;2323065;58;21040;-75
2022/08/06 04:36:15;;;;;;;1.83;1.50;;;;;;;;;;2563642;54;21127;-75
2022/08/06 04:38:42;;;;;;;2.83;1.60;;;;;;;;;;2322021;58;21047;-75
2022/08/06 04:41:10;;;;;;;5.10;2.00;;;;;;;;;;2322914;58;21523;-75
2022/08/06 04:43:37;;;;;;;5.20;1.60;;;;;;;;;;2322427;58;21064;-76
2022/08/06 04:46:05;;;;;;;2.97;1.42;;;;;;;;;;2322027;58;21036;-75
2022/08/06 04:48:32;;;;;;;2.67;2.00;;;;;;;;;;2564967;54;21044;-75
2022/08/06 04:51:02;;;;;;;3.80;1.52;;;;;;;;;;2322445;58;21141;-77
2022/08/06 04:53:35;;;;;;;5.30;2.12;;;;;;;;;;2323304;58;21135;-76
2022/08/06 04:56:02;;;;;;;;;;;;;;;;;;2326016;58;21076;-74
2022/08/06 04:58:29;;;;;;;4.68;1.70;;;;;;;;;;2564096;54;20091;-74
2022/08/06 05:00:56;;;;;;;7.40;1.73;;;;;;;;;;2322543;58;21060;-76
2022/08/06 05:03:23;;;;;;;4.65;2.17;;;;;;;;;;2322268;58;21036;-75
2022/08/06 05:05:55;;;;;;;2.83;1.40;;;;;;;;;;2322172;58;21068;-78
2022/08/06 05:08:23;;;;;;;3.10;1.50;;;;;;;;;;2322865;58;21092;-78
2022/08/06 05:10:54;;;;;;;1.75;1.55;;;;;;;;;;2323244;58;21056;-74
2022/08/06 05:13:22;;;;;;;4.25;1.90;;;;;;;;;;2564527;54;21096;-75
2022/08/06 05:15:52;;;;;;;4.35;1.77;;;;;;;;;;2321664;58;21124;-74
2022/08/06 05:18:21;;;;;;;3.45;1.60;;;;;;;;;;2322356;58;21582;-76
2022/08/06 05:20:50;;;;;;;1.60;1.45;;;;;;;;;;2323310;58;21033;-74
2022/08/06 05:23:19;;;;;;;1.55;1.45;;;;;;;;;;2322719;58;21049;-78
2022/08/06 05:25:46;;;;;;;2.53;1.50;;;;;;;;;;2322797;58;21116;-75
2022/08/06 05:28:13;;;;;;;6.75;1.58;;;;;;;;;;2321928;58;21103;-74
2022/08/06 05:30:44;;;;;;;2.47;1.62;;;;;;;;;;2322311;58;21052;-75
2022/08/06 05:33:12;;;;;;;1.55;1.45;;;;;;;;;;2563722;54;21085;-75
2022/08/06 05:35:39;;;;;;;1.75;1.37;;;;;;;;;;2322533;58;21132;-74
2022/08/06 05:38:06;;;;;;;4.47;1.67;;;;;;;;;;2318101;56;21111;-80
2022/08/06 05:40:36;;;;;;;2.30;1.50;;;;;;;;;;2304267;58;21608;-76
2022/08/06 05:43:03;;;;;;;1.90;1.33;;;;;;;;;;2278692;59;21065;-76
2022/08/06 05:45:31;;;;;;;3.58;1.58;;;;;;;;;;2277962;59;21258;-78
2022/08/06 05:48:00;;;;;;;3.97;1.67;;;;;;;;;;2278178;59;21041;-78
2022/08/06 05:50:29;;;;;;;4.20;1.67;;;;;;;;;;2349069;55;21077;-80
2022/08/06 05:52:58;;;;;;;3.87;2.03;;;;;;;;;;2278809;55;21086;-76
2022/08/06 05:55:31;;;;;;;2.70;1.80;;;;;;;;;;2308251;55;21085;-80
2022/08/06 05:57:59;;;;;;;2.75;1.98;;;;;;;;;;2276344;59;21070;-79
2022/08/06 06:00:29;;;;;;;2.42;1.42;;;;;;;;;;2296505;55;21134;-80
2022/08/06 06:02:56;;;;;;;4.82;1.75;;;;;;;;;;2277000;59;21097;-78
2022/08/06 06:05:24;;;;;;;4.55;1.58;;;;;;;;;;2365711;55;21062;-77
2022/08/06 06:07:54;;;;;;;2.15;1.58;;;;;;;;;;2277360;59;21053;-78
2022/08/06 06:10:22;;;;;;;3.50;1.40;;;;;;;;;;2277696;59;21171;-77
2022/08/06 06:12:50;;;;;;;3.70;1.42;;;;;;;;;;2278010;59;21073;-77
2022/08/06 06:15:18;;;;;;;3.08;1.12;;;;;;;;;;2278175;59;21130;-79
2022/08/06 06:17:52;;;;;;;5.68;1.17;;;;;;;;;;2278322;59;21540;-79
2022/08/06 06:20:23;;;;;;;2.12;1.05;;;;;;;;;;2337598;55;21177;-78
2022/08/06 06:22:56;;;;;;;1.23;0.90;;;;;;;;;;2278013;59;21122;-76
2022/08/06 06:27:59;;;;;;;2.83;1.10;;;;;;;;;;2336054;57;27822;-76
2022/08/06 06:30:30;;;;;;;4.75;1.80;;;;;;;;;;2347139;57;21049;-77
2022/08/06 06:33:03;;;;;;;1.08;0.90;;;;;;;;;;2372599;56;21486;-78
2022/08/06 06:35:29;;;;;;;;;;;;;;;;;;2377640;56;21030;-78
2022/08/06 06:38:00;;;;;;;1.73;0.98;;;;;;;;;;2465663;52;20320;-77
2022/08/06 06:40:34;;;;;;;2.92;0.90;;;;;;;;;;2373518;56;21042;-76
2022/08/06 06:43:03;;;;;;;3.20;1.10;;;;;;;;;;2374606;56;21039;-77
2022/08/06 06:45:33;;;;;;;4.35;1.60;;;;;;;;;;2374519;56;21094;-77
2022/08/06 06:48:02;;;;;;;1.60;1.10;;;;;;;;;;2373938;56;21050;-77
2022/08/06 06:50:30;;;;;;;2.95;0.95;;;;;;;;;;2376244;52;21047;-78
2022/08/06 06:52:58;;;;;;;4.57;1.12;;;;;;;;;;2374571;56;21090;-78
2022/08/06 06:55:29;;;;;;;2.70;1.10;;;;;;;;;;2373891;56;21058;-78
2022/08/06 06:57:58;;;;;;;2.42;1.00;;;;;;;;;;2373726;56;21106;-79
2022/08/06 07:00:25;;;;;;;0.80;0.80;;;;;;;;;;2381118;52;21127;-77
2022/08/06 07:02:53;;;;;;;2.25;0.88;;;;;;;;;;2371172;56;21098;-76
2022/08/06 07:05:21;;;;;;;1.12;0.90;;;;;;;;;;2373271;56;21098;-78
2022/08/06 07:07:49;;;;;;;6.93;1.60;;;;;;;;;;2379388;52;21193;-78
2022/08/06 07:10:18;;;;;;;2.37;0.70;;;;;;;;;;2370301;56;21062;-77
2022/08/06 07:12:45;;;;;;;2.33;1.02;;;;;;;;;;2372693;56;21118;-79
2022/08/06 07:15:14;;;;;;;0.70;0.70;;;;;;;;;;2372198;56;21066;-78
2022/08/06 07:17:42;;;;;;;1.10;0.90;;;;;;;;;;2371002;53;21672;-78
2022/08/06 07:20:11;;;;;;;3.90;1.20;;;;;;;;;;2373614;56;21127;-79
2022/08/06 07:22:40;;;;;;;3.22;1.00;;;;;;;;;;2372052;56;21043;-78
2022/08/06 07:25:08;;;;;;;1.17;0.85;;;;;;;;;;2373549;56;21821;-78
2022/08/06 07:27:38;;;;;;;3.30;0.90;;;;;;;;;;2375886;52;21078;-77
2022/08/06 07:30:06;;;;;;;3.40;0.77;;;;;;;;;;2373351;56;21058;-78
2022/08/06 07:32:34;;;;;;;2.37;0.85;;;;;;;;;;2374493;56;21336;-78
2022/08/06 07:35:01;;;;;;;11.77;0.90;;;;;;;;;;2371676;56;21114;-78
2022/08/06 07:37:30;;;;;;;4.87;0.95;;;;;;;;;;2372032;56;21130;-77
2022/08/06 07:39:58;;;;;;;1.08;0.57;;;;;;;;;;2371425;56;21043;-78
2022/08/06 07:42:25;;;;;;;4.32;0.80;;;;;;;;;;2373275;56;21042;-80
2022/08/06 07:44:54;;;;;;;5.18;1.08;;;;;;;;;;2373984;56;21118;-80
2022/08/06 07:47:23;;;;;;;2.00;0.70;;;;;;;;;;2378236;52;21662;-80
2022/08/06 07:49:53;;;;;;;1.45;0.73;;;;;;;;;;2373527;56;21023;-79
2022/08/06 07:52:20;;;;;;;3.37;0.88;;;;;;;;;;2371801;56;21054;-79
2022/08/06 07:54:48;;;;;;;1.50;0.70;;;;;;;;;;2372410;56;21134;-77
2022/08/06 07:57:16;;;;;;;2.42;0.80;;;;;;;;;;2371895;56;21059;-77
2022/08/06 07:59:44;;;;;;;1.37;0.60;;;;;;;;;;2377152;52;21055;-77
2022/08/06 08:02:11;;;;;;;2.05;0.85;;;;;;;;;;2377100;52;21027;-77
2022/08/06 08:07:25;;;;;;;3.37;0.70;;;;;;;;;;2391065;52;21026;-78
2022/08/06 08:09:52;;;;;;;1.10;0.65;;;;;;;;;;2371318;56;21596;-79
2022/08/06 08:12:20;;;;;;;4.30;0.77;;;;;;;;;;2372542;56;21071;-77
2022/08/06 08:14:47;;;;;;;1.17;0.60;;;;;;;;;;2373116;56;21577;-77
2022/08/06 08:17:16;;;;;;;5.50;0.80;;;;;;;;;;2376191;52;21573;-77
2022/08/06 08:19:44;;;;;;;2.05;0.60;;;;;;;;;;2372330;56;21122;-77
2022/08/06 08:22:13;;;;;;;3.40;0.80;;;;;;;;;;2373305;56;21042;-79
2022/08/06 08:24:41;;;;;;;0.50;0.50;;;;;;;;;;2372456;56;21125;-77
2022/08/06 08:27:09;;;;;;;0.45;0.40;;;;;;;;;;2371135;56;21109;-77
2022/08/06 08:29:36;;;;;;;2.22;0.75;;;;;;;;;;2529527;52;21110;-77
2022/08/06 08:32:04;;;;;;;4.28;1.08;;;;;;;;;;2371343;56;21047;-75
2022/08/06 08:34:32;;;;;;;4.05;0.80;;;;;;;;;;2440007;52;21043;-77
2022/08/06 08:37:00;;;;;;;4.60;0.77;;;;;;;;;;2385774;52;21106;-76
2022/08/06 08:39:27;;;;;;;1.35;0.60;;;;;;;;;;2374023;56;21613;-75
2022/08/06 08:41:58;;;;;;;1.83;0.73;;;;;;;;;;2373277;56;21038;-77
2022/08/06 08:44:27;;;;;;;3.45;0.68;;;;;;;;;;2374492;56;21035;-76
2022/08/06 08:46:56;;;;;;;3.65;0.75;;;;;;;;;;2373708;53;21122;-77
2022/08/06 08:49:28;;;;;;;1.40;0.60;;;;;;;;;;2373767;56;21032;-75
2022/08/06 08:51:57;;;;;;;4.70;0.90;;;;;;;;;;2373981;56;21102;-75
2022/08/06 08:54:25;;;;;;;0.60;0.50;;;;;;;;;;2374473;56;21088;-75
2022/08/06 08:56:52;;;;;;;1.05;0.68;;;;;;;;;;2373310;56;21043;-77
2022/08/06 08:59:20;;;;;;;1.08;0.50;;;;;;;;;;2373572;56;21115;-76
2022/08/06 09:01:48;;;;;;;1.00;0.60;;;;;;;;;;2415266;52;21043;-76
2022/08/06 09:04:15;;;;;;;4.78;1.20;;;;;;;;;;2373414;56;21050;-76
2022/08/06 09:06:42;;;;;;;2.15;0.80;;;;;;;;;;2373563;56;21470;-76
2022/08/06 09:09:10;;;;;;;0.65;0.40;;;;;;;;;;2374031;56;21604;-75
2022/08/06 09:11:37;;;;;;;2.65;0.57;;;;;;;;;;2374127;56;21406;-75
2022/08/06 09:14:05;;;;;;;3.30;0.52;;;;;;;;;;2373783;56;21109;-76
2022/08/06 09:16:33;;;;;;;1.12;0.60;;;;;;;;;;2372481;56;21102;-77
2022/08/06 09:19:00;;;;;;;2.05;0.85;;;;;;;;;;2627198;52;21027;-75
2022/08/06 09:21:27;;;;;;;2.20;0.88;;;;;;;;;;2373742;56;21106;-75
2022/08/06 09:23:55;;;;;;;1.30;0.55;;;;;;;;;;2374095;56;21114;-76
2022/08/06 09:26:22;;;;;;;1.40;0.57;;;;;;;;;;2373639;56;21170;-76
2022/08/06 09:28:49;;;;;;;0.30;0.30;;;;;;;;;;2374147;56;21035;-76
2022/08/06 09:31:17;;;;;;;3.08;0.50;;;;;;;;;;2373688;56;21169;-76
2022/08/06 09:33:54;;;;;;;2.30;0.98;;;;;;;;;;2374209;56;21031;-77
2022/08/06 09:36:21;;;;;;;1.37;0.90;;;;;;;;;;2373078;56;21173;-78
2022/08/06 09:38:49;;;;;;;0.90;0.60;;;;;;;;;;2373589;56;21601;-76
2022/08/06 09:41:17;;;;;;;2.50;0.57;;;;;;;;;;2374177;52;21051;-78
2022/08/06 09:43:45;;;;;;;0.98;0.50;;;;;;;;;;2373604;56;21129;-75
2022/08/06 09:46:12;;;;;;;2.25;0.70;;;;;;;;;;2373534;56;21043;-77
2022/08/06 09:48:56;;;;;;;2.53;0.43;;;;;;;;;;2377912;52;21038;-75
2022/08/06 09:51:23;;;;;;;1.98;0.70;;;;;;;;;;2398999;52;21070;-76
2022/08/06 09:53:53;;;;;;;2.08;0.60;;;;;;;;;;2374230;56;21039;-76
2022/08/06 09:56:20;;;;;;;3.35;0.90;;;;;;;;;;2374153;52;21522;-77
2022/08/06 09:58:47;;;;;;;1.95;0.62;;;;;;;;;;2374489;56;21035;-76
2022/08/06 10:01:16;;;;;;;2.15;1.02;;;;;;;;;;2373772;56;21063;-76
2022/08/06 10:03:43;;;;;;;3.47;0.60;;;;;;;;;;2374180;56;21039;-75
2022/08/06 10:06:11;;;;;;;1.65;0.65;;;;;;;;;;2373591;56;21137;-76
2022/08/06 10:08:38;;;;;;;2.90;0.70;;;;;;;;;;2373708;56;21042;-76
2022/08/06 10:11:06;;;;;;;1.40;0.50;;;;;;;;;;2459652;52;21093;-77
2022/08/06 10:13:34;;;;;;;1.50;0.80;;;;;;;;;;2372764;56;21047;-75
2022/08/06 10:16:14;;;;;;;1.55;0.77;;;;;;;;;;2373605;56;21038;-76
2022/08/06 10:18:42;;;;;;;2.75;0.60;;;;;;;;;;2374559;56;21046;-76
2022/08/06 10:21:10;;;;;;;3.67;0.57;;;;;;;;;;2373939;56;21066;-76
2022/08/06 10:23:38;;;;;;;3.05;0.62;;;;;;;;;;2374594;56;21700;-77
2022/08/06 10:26:06;;;;;;;3.47;1.05;;;;;;;;;;2373508;56;21042;-76
2022/08/06 10:28:34;;;;;;;4.12;0.93;;;;;;;;;;2373796;56;21046;-77
2022/08/06 10:33:50;;;;;;;1.08;0.60;;;;;;;;;;2441627;53;22141;-77
2022/08/06 10:36:19;;;;;;;0.60;0.52;;;;;;;;;;2346839;57;21131;-78
2022/08/06 10:38:49;;;;;;;2.17;0.57;;;;;;;;;;2347802;57;21552;-78
2022/08/06 10:41:17;;;;;;;0.75;0.40;;;;;;;;;;2354778;56;21043;-79
2022/08/06 10:43:44;;;;;;;1.92;0.75;;;;;;;;;;2375413;56;21025;-79
2022/08/06 10:46:14;;;;;;;3.78;0.95;;;;;;;;;;2374510;56;21062;-79
2022/08/06 10:48:41;;;;;;;3.55;1.00;;;;;;;;;;2375444;56;21026;-78
2022/08/06 10:51:09;;;;;;;2.95;0.98;;;;;;;;;;2374701;56;21054;-79
2022/08/06 10:53:38;;;;;;;2.08;0.75;;;;;;;;;;2375060;56;21102;-78
2022/08/06 10:56:06;;;;;;;4.45;1.37;;;;;;;;;;2374947;56;21601;-78
2022/08/06 10:58:34;;;;;;;2.70;1.30;;;;;;;;;;2393380;52;21051;-78
2022/08/06 11:01:03;;;;;;;2.90;0.80;;;;;;;;;;2382391;52;21185;-79
2022/08/06 11:03:36;;;;;;;2.78;1.15;;;;;;;;;;2373229;56;21102;-79
2022/08/06 11:06:10;;;;;;;1.55;0.98;;;;;;;;;;2373473;56;21035;-80
2022/08/06 11:08:43;;;;;;;3.10;1.30;;;;;;;;;;2374938;56;21102;-78
2022/08/06 11:11:18;;;;;;;3.25;1.60;;;;;;;;;;2375569;56;21043;-79
2022/08/06 11:13:52;;;;;;;1.77;1.42;;;;;;;;;;2532358;52;21038;-79
2022/08/06 11:16:25;;;;;;;3.42;1.90;;;;;;;;;;2373781;56;21070;-78
2022/08/06 11:18:59;;;;;;;3.05;1.83;;;;;;;;;;2374663;56;21616;-76
2022/08/06 11:21:37;;;;;;;3.72;2.12;;;;;;;;;;2375163;56;21087;-77
2022/08/06 11:24:05;;;;;;;5.47;1.92;;;;;;;;;;2375314;56;21129;-76
2022/08/06 11:26:36;;;;;;;4.28;2.08;;;;;;;;;;2374528;56;21101;-77
2022/08/06 11:29:04;;;;;;;4.37;2.50;;;;;;;;;;2374871;56;21110;-78
2022/08/06 11:31:36;;;;;;;3.35;2.08;;;;;;;;;;2374035;56;21553;-77
2022/08/06 11:34:04;;;;;;;6.93;2.72;;;;;;;;;;2374622;56;21078;-77
2022/08/06 11:36:43;;;;;;;7.78;3.00;;;;;;;;;;2374744;56;21593;-77
2022/08/06 11:39:11;;;;;;;6.25;2.70;;;;;;;;;;2440944;54;72434;-80
2022/08/06 11:41:44;;;;;;;4.72;2.65;;;;;;;;;;2303144;58;21093;-82
2022/08/06 11:44:15;;;;;;;5.85;2.70;;;;;;;;;;2539673;54;21126;-81
2022/08/06 11:46:45;;;;;;;4.68;3.00;;;;;;;;;;2302685;58;21082;-81
2022/08/06 11:49:22;;;;;;;5.50;2.53;;;;;;;;;;2540079;54;21081;-81
2022/08/06 11:51:51;;;;;;;3.37;2.30;;;;;;;;;;2301957;58;21658;-81
2022/08/06 11:54:19;;;;;;;8.50;3.08;;;;;;;;;;2302155;58;21066;-80
2022/08/06 11:57:17;;;;;;;5.07;2.30;;;;;;;;;;2300286;58;21086;-82
2022/08/06 11:59:47;;;;;;;4.25;2.60;;;;;;;;;;2301836;58;21082;-82
2022/08/06 12:02:15;;;;;;;3.47;2.08;;;;;;;;;;2538259;54;22500;-81
2022/08/06 12:04:42;;;;;;;3.30;2.60;;;;;;;;;;2301234;58;21074;-81
2022/08/06 12:07:17;;;;;;;6.97;2.55;;;;;;;;;;2301128;58;21353;-84
2022/08/06 12:09:44;;;;;;;3.50;2.67;;;;;;;;;;2538713;54;21066;-83
2022/08/06 12:12:32;;;;;;;3.37;2.72;;;;;;;;;;2538043;54;22322;-82
2022/08/06 12:15:00;;;;;;;7.22;3.15;;;;;;;;;;2301503;58;21058;-80
2022/08/06 12:17:27;;;;;;;4.55;2.90;;;;;;;;;;2300294;58;21547;-81
2022/08/06 12:19:55;;;;;;;6.12;3.53;;;;;;;;;;2300663;58;21610;-85
2022/08/06 12:22:23;;;;;;;3.72;2.65;;;;;;;;;;2299295;58;21562;-81
2022/08/06 12:24:51;;;;;;;3.58;2.80;;;;;;;;;;2536243;54;21149;-80
2022/08/06 12:27:19;;;;;;;7.30;3.30;;;;;;;;;;2300069;58;21141;-83
2022/08/06 12:29:46;;;;;;;8.57;3.33;;;;;;;;;;2300277;58;21634;-80
2022/08/06 12:32:22;;;;;;;5.18;3.37;;;;;;;;;;2300023;58;21078;-81
2022/08/06 12:34:49;;;;;;;4.05;2.90;;;;;;;;;;2300337;58;21150;-81
2022/08/06 12:37:16;;;;;;;3.62;2.95;;;;;;;;;;2300218;58;21069;-82
2022/08/06 12:42:29;;;;;;;4.18;2.87;;;;;;;;;;2300386;58;21507;-81
2022/08/06 12:44:56;;;;;;;3.28;2.17;;;;;;;;;;2299917;58;21142;-82
2022/08/06 12:47:25;;;;;;;4.22;2.92;;;;;;;;;;2299801;58;21887;-81
2022/08/06 12:49:52;;;;;;;8.00;3.50;;;;;;;;;;2537859;54;21066;-86
2022/08/06 12:52:21;;;;;;;7.53;3.25;;;;;;;;;;2301755;58;21870;-82
2022/08/06 12:54:48;;;;;;;3.80;2.90;;;;;;;;;;2301613;58;21066;-84
2022/08/06 12:57:22;;;;;;;5.85;2.95;;;;;;;;;;2301744;58;21063;-83
2022/08/06 12:59:49;;;;;;;5.22;2.80;;;;;;;;;;2301360;58;21082;-83
2022/08/06 13:02:17;;;;;;;4.85;2.65;;;;;;;;;;2301473;58;21073;-84
2022/08/06 13:04:46;;;;;;;3.83;2.53;;;;;;;;;;2301134;58;21055;-84
2022/08/06 13:07:13;;;;;;;2.83;2.53;;;;;;;;;;2301356;58;21384;-83
2022/08/06 13:09:41;;;;;;;4.80;3.12;;;;;;;;;;2539163;54;21063;-83
2022/08/06 13:12:15;;;;;;;4.43;2.97;;;;;;;;;;2301806;58;21082;-82
2022/08/06 13:14:52;;;;;;;7.00;2.95;;;;;;;;;;2537527;54;21123;-82
2022/08/06 13:17:21;;;;;;;4.87;2.90;;;;;;;;;;2538709;54;21069;-81
2022/08/06 13:19:52;;;;;;;4.30;3.17;;;;;;;;;;2300543;58;21078;-84
2022/08/06 13:22:20;;;;;;;5.12;3.22;;;;;;;;;;2301405;58;21781;-85
2022/08/06 13:24:47;;;;;;;3.00;2.60;;;;;;;;;;2301490;58;21058;-80
2022/08/06 13:27:14;;;;;;;4.43;2.83;;;;;;;;;;2538975;54;21050;-82
2022/08/06 13:30:00;;;;;;;4.45;2.65;;;;;;;;;;2301452;58;21220;-83
2022/08/06 13:32:27;;;;;;;4.25;3.42;;;;;;;;;;2301746;58;21059;-80
2022/08/06 13:34:56;;;;;;;5.85;3.85;;;;;;;;;;2537727;54;21075;-83
2022/08/06 13:37:51;;;;;;;5.80;3.15;;;;;;;;;;2300675;58;21146;-85
2022/08/06 13:40:19;;;;;;;4.90;3.28;;;;;;;;;;2285063;58;21165;-81
2022/08/06 13:42:50;;;;;;;3.67;3.03;;;;;;;;;;2301740;58;21567;-82
2022/08/06 13:45:20;;;;;;;5.03;3.75;;;;;;;;;;2301341;58;21133;-82
2022/08/06 13:47:49;;;;;;;5.45;4.25;;;;;;;;;;2301756;58;21079;-84
2022/08/06 13:50:17;;;;;;;5.65;4.28;;;;;;;;;;2301197;58;21298;-83
2022/08/06 13:52:44;;;;;;;4.82;3.37;;;;;;;;;;2301490;58;21078;-82
2022/08/06 13:55:12;;;;;;;5.28;3.72;;;;;;;;;;2301794;58;21058;-86
2022/08/06 13:57:39;;;;;;;4.95;4.32;;;;;;;;;;2538488;54;21645;-84
2022/08/06 14:00:07;;;;;;;7.57;4.55;;;;;;;;;;2301527;58;21086;-83
2022/08/06 14:02:34;;;;;;;9.85;5.22;;;;;;;;;;2301640;58;21117;-83
2022/08/06 14:05:02;;;;;;;8.25;4.65;;;;;;;;;;2538443;54;21058;-84
2022/08/06 14:07:29;;;;;;;6.72;4.70;;;;;;;;;;2300364;58;21811;-83
2022/08/06 14:09:56;;;;;;;6.93;4.72;;;;;;;;;;2298156;58;21074;-81
2022/08/06 14:12:23;;;;;;;7.93;4.90;;;;;;;;;;2300407;58;21067;-82
2022/08/06 14:14:50;;;;;;;7.40;4.43;;;;;;;;;;2536111;54;21638;-81
2022/08/06 14:17:17;;;;;;;6.57;4.70;;;;;;;;;;2536768;54;21130;-82
2022/08/06 14:19:44;;;;;;;15.32;5.18;;;;;;;;;;2300071;58;21130;-82
2022/08/06 14:22:12;;;;;;;11.43;5.53;;;;;;;;;;2300685;58;21090;-82
2022/08/06 14:24:39;;;;;;;6.37;4.35;;;;;;;;;;2300473;58;21142;-81
2022/08/06 14:27:06;;;;;;;6.20;4.28;;;;;;;;;;2536342;54;21137;-82
2022/08/06 14:29:34;;;;;;;5.95;4.75;;;;;;;;;;2300630;58;21113;-81
2022/08/06 14:32:01;;;;;;;8.63;5.00;;;;;;;;;;2300198;58;21155;-81
2022/08/06 14:34:28;;;;;;;6.75;4.62;;;;;;;;;;2537361;54;21150;-80
2022/08/06 14:36:55;;;;;;;8.02;4.80;;;;;;;;;;2300095;58;21066;-82
2022/08/06 14:39:22;;;;;;;7.28;5.28;;;;;;;;;;2537621;54;21070;-82
2022/08/06 14:47:19;;;;;;;8.80;5.50;;;;;;;;;;2300697;58;20995;-81
2022/08/06 14:49:47;;;;;;;5.97;4.85;;;;;;;;;;2300842;58;21138;-82
2022/08/06 14:52:14;;;;;;;6.10;4.72;;;;;;;;;;2538149;54;21158;-82
2022/08/06 14:54:41;;;;;;;7.72;5.00;;;;;;;;;;2537632;54;21913;-82
2022/08/06 14:57:08;;;;;;;7.25;5.25;;;;;;;;;;2536284;54;21066;-81
2022/08/06 14:59:35;;;;;;;6.47;4.75;;;;;;;;;;2537567;54;21820;-79
2022/08/06 15:02:02;;;;;;;8.77;4.85;;;;;;;;;;2299783;58;21319;-80
2022/08/06 15:04:30;;;;;;;8.20;5.35;;;;;;;;;;2536379;54;21086;-81
2022/08/06 15:06:57;;;;;;;7.62;5.55;;;;;;;;;;2299255;58;21158;-80
2022/08/06 15:09:24;;;;;;;6.60;5.10;;;;;;;;;;2299263;58;21581;-80